sensor_id;sensor_type;location;lat;lon;timestamp;P1;durP1;ratioP1;P2;durP2;ratioP2
16822;SDS011;8528;49.976;11.858;2024-03-06T00:01:57;19.13;;;10.83;;
16822;SDS011;8528;49.976;11.858;2024-03-06T00:04:24;18.73;;;10.90;;
16822;SDS011;8528;49.976;11.858;2024-03-06T00:06:51;17.20;;;9.93;;
16822;SDS011;8528;49.976;11.858;2024-03-06T00:09:19;19.00;;;10.90;;
16822;SDS011;8528;49.976;11.858;2024-03-06T00:11:45;17.83;;;10.60;;
16822;SDS011;8528;49.976;11.858;2024-03-06T00:14:13;19.27;;;11.20;;
16822;SDS011;8528;49.976;11.858;2024-03-06T00:16:40;20.80;;;11.00;;
16822;SDS011;8528;49.976;11.858;2024-03-06T00:19:06;18.87;;;11.03;;
16822;SDS011;8528;49.976;11.858;2024-03-06T00:21:34;18.90;;;11.20;;
16822;SDS011;8528;49.976;11.858;2024-03-06T00:24:02;18.40;;;10.47;;
16822;SDS011;8528;49.976;11.858;2024-03-06T00:26:32;18.70;;;9.63;;
16822;SDS011;8528;49.976;11.858;2024-03-06T00:28:59;16.13;;;9.50;;
16822;SDS011;8528;49.976;11.858;2024-03-06T00:31:26;17.37;;;10.27;;
16822;SDS011;8528;49.976;11.858;2024-03-06T00:33:53;19.20;;;9.90;;
16822;SDS011;8528;49.976;11.858;2024-03-06T00:36:19;19.17;;;10.13;;
16822;SDS011;8528;49.976;11.858;2024-03-06T00:38:47;18.70;;;9.60;;
16822;SDS011;8528;49.976;11.858;2024-03-06T00:41:14;17.27;;;9.87;;
16822;SDS011;8528;49.976;11.858;2024-03-06T00:43:41;17.60;;;9.10;;
16822;SDS011;8528;49.976;11.858;2024-03-06T00:46:08;20.03;;;10.37;;
16822;SDS011;8528;49.976;11.858;2024-03-06T00:48:35;17.70;;;9.40;;
16822;SDS011;8528;49.976;11.858;2024-03-06T00:51:06;13.27;;;8.13;;
16822;SDS011;8528;49.976;11.858;2024-03-06T00:53:36;16.57;;;8.63;;
16822;SDS011;8528;49.976;11.858;2024-03-06T00:56:03;14.77;;;8.10;;
16822;SDS011;8528;49.976;11.858;2024-03-06T00:58:30;16.63;;;8.30;;
16822;SDS011;8528;49.976;11.858;2024-03-06T01:00:57;18.77;;;9.53;;
16822;SDS011;8528;49.976;11.858;2024-03-06T01:03:24;16.63;;;8.47;;
16822;SDS011;8528;49.976;11.858;2024-03-06T01:05:51;14.60;;;8.20;;
16822;SDS011;8528;49.976;11.858;2024-03-06T01:08:19;15.50;;;7.90;;
16822;SDS011;8528;49.976;11.858;2024-03-06T01:10:46;14.87;;;9.03;;
16822;SDS011;8528;49.976;11.858;2024-03-06T01:13:13;14.93;;;9.13;;
16822;SDS011;8528;49.976;11.858;2024-03-06T01:15:40;16.57;;;9.20;;
16822;SDS011;8528;49.976;11.858;2024-03-06T01:18:07;15.97;;;8.83;;
16822;SDS011;8528;49.976;11.858;2024-03-06T01:20:35;15.17;;;8.20;;
16822;SDS011;8528;49.976;11.858;2024-03-06T01:23:02;18.83;;;11.47;;
16822;SDS011;8528;49.976;11.858;2024-03-06T01:25:30;17.70;;;10.77;;
16822;SDS011;8528;49.976;11.858;2024-03-06T01:27:57;20.17;;;10.97;;
16822;SDS011;8528;49.976;11.858;2024-03-06T01:30:24;21.23;;;10.77;;
16822;SDS011;8528;49.976;11.858;2024-03-06T01:32:51;24.53;;;14.80;;
16822;SDS011;8528;49.976;11.858;2024-03-06T01:35:18;25.43;;;14.60;;
16822;SDS011;8528;49.976;11.858;2024-03-06T01:37:44;32.10;;;17.77;;
16822;SDS011;8528;49.976;11.858;2024-03-06T01:40:12;29.80;;;16.50;;
16822;SDS011;8528;49.976;11.858;2024-03-06T01:42:39;28.27;;;16.13;;
16822;SDS011;8528;49.976;11.858;2024-03-06T01:45:06;27.43;;;16.07;;
16822;SDS011;8528;49.976;11.858;2024-03-06T01:47:33;27.97;;;15.47;;
16822;SDS011;8528;49.976;11.858;2024-03-06T01:50:01;26.97;;;15.60;;
16822;SDS011;8528;49.976;11.858;2024-03-06T01:52:28;26.87;;;15.50;;
16822;SDS011;8528;49.976;11.858;2024-03-06T01:54:56;27.60;;;14.67;;
16822;SDS011;8528;49.976;11.858;2024-03-06T01:57:22;26.83;;;15.90;;
16822;SDS011;8528;49.976;11.858;2024-03-06T01:59:49;27.57;;;14.93;;
16822;SDS011;8528;49.976;11.858;2024-03-06T02:02:17;25.17;;;14.97;;
16822;SDS011;8528;49.976;11.858;2024-03-06T02:04:44;22.63;;;14.40;;
16822;SDS011;8528;49.976;11.858;2024-03-06T02:07:12;28.10;;;14.53;;
16822;SDS011;8528;49.976;11.858;2024-03-06T02:09:40;27.07;;;15.20;;
16822;SDS011;8528;49.976;11.858;2024-03-06T02:12:09;28.57;;;16.07;;
16822;SDS011;8528;49.976;11.858;2024-03-06T02:14:36;27.30;;;15.23;;
16822;SDS011;8528;49.976;11.858;2024-03-06T02:17:03;30.70;;;16.80;;
16822;SDS011;8528;49.976;11.858;2024-03-06T02:19:39;28.00;;;15.27;;
16822;SDS011;8528;49.976;11.858;2024-03-06T02:22:08;30.07;;;15.60;;
16822;SDS011;8528;49.976;11.858;2024-03-06T02:24:35;28.87;;;17.07;;
16822;SDS011;8528;49.976;11.858;2024-03-06T02:27:03;27.20;;;15.93;;
16822;SDS011;8528;49.976;11.858;2024-03-06T02:29:32;30.80;;;15.70;;
16822;SDS011;8528;49.976;11.858;2024-03-06T02:31:59;28.47;;;16.20;;
16822;SDS011;8528;49.976;11.858;2024-03-06T02:34:29;24.37;;;13.27;;
16822;SDS011;8528;49.976;11.858;2024-03-06T02:36:58;27.43;;;14.57;;
16822;SDS011;8528;49.976;11.858;2024-03-06T02:39:26;25.20;;;14.57;;
16822;SDS011;8528;49.976;11.858;2024-03-06T02:41:53;22.67;;;13.90;;
16822;SDS011;8528;49.976;11.858;2024-03-06T02:44:20;22.23;;;13.03;;
16822;SDS011;8528;49.976;11.858;2024-03-06T02:46:50;19.77;;;12.97;;
16822;SDS011;8528;49.976;11.858;2024-03-06T02:49:17;24.90;;;13.80;;
16822;SDS011;8528;49.976;11.858;2024-03-06T02:51:44;25.30;;;14.07;;
16822;SDS011;8528;49.976;11.858;2024-03-06T02:54:12;28.40;;;15.10;;
16822;SDS011;8528;49.976;11.858;2024-03-06T02:56:38;25.87;;;14.40;;
16822;SDS011;8528;49.976;11.858;2024-03-06T02:59:05;24.33;;;14.37;;
16822;SDS011;8528;49.976;11.858;2024-03-06T03:01:33;22.37;;;12.80;;
16822;SDS011;8528;49.976;11.858;2024-03-06T03:04:00;19.70;;;12.43;;
16822;SDS011;8528;49.976;11.858;2024-03-06T03:06:27;19.37;;;11.83;;
16822;SDS011;8528;49.976;11.858;2024-03-06T03:08:55;21.10;;;11.87;;
16822;SDS011;8528;49.976;11.858;2024-03-06T03:11:22;22.50;;;12.73;;
16822;SDS011;8528;49.976;11.858;2024-03-06T03:13:49;28.93;;;14.77;;
16822;SDS011;8528;49.976;11.858;2024-03-06T03:16:16;31.43;;;15.90;;
16822;SDS011;8528;49.976;11.858;2024-03-06T03:18:44;31.07;;;16.17;;
16822;SDS011;8528;49.976;11.858;2024-03-06T03:21:11;31.37;;;16.30;;
16822;SDS011;8528;49.976;11.858;2024-03-06T03:23:39;31.40;;;17.10;;
16822;SDS011;8528;49.976;11.858;2024-03-06T03:26:06;35.90;;;17.73;;
16822;SDS011;8528;49.976;11.858;2024-03-06T03:28:40;32.33;;;16.07;;
16822;SDS011;8528;49.976;11.858;2024-03-06T03:31:07;33.30;;;17.07;;
16822;SDS011;8528;49.976;11.858;2024-03-06T03:33:38;31.07;;;17.77;;
16822;SDS011;8528;49.976;11.858;2024-03-06T03:36:06;34.57;;;18.23;;
16822;SDS011;8528;49.976;11.858;2024-03-06T03:38:37;33.43;;;16.43;;
16822;SDS011;8528;49.976;11.858;2024-03-06T03:41:11;30.70;;;17.00;;
16822;SDS011;8528;49.976;11.858;2024-03-06T03:43:40;32.20;;;16.77;;
16822;SDS011;8528;49.976;11.858;2024-03-06T03:46:08;32.93;;;17.53;;
16822;SDS011;8528;49.976;11.858;2024-03-06T03:48:36;31.30;;;16.60;;
16822;SDS011;8528;49.976;11.858;2024-03-06T03:51:04;29.37;;;15.90;;
16822;SDS011;8528;49.976;11.858;2024-03-06T03:53:33;28.63;;;14.97;;
16822;SDS011;8528;49.976;11.858;2024-03-06T03:56:01;30.20;;;14.73;;
16822;SDS011;8528;49.976;11.858;2024-03-06T03:58:29;24.87;;;14.17;;
16822;SDS011;8528;49.976;11.858;2024-03-06T04:00:56;27.80;;;14.47;;
16822;SDS011;8528;49.976;11.858;2024-03-06T04:03:23;28.10;;;12.93;;
16822;SDS011;8528;49.976;11.858;2024-03-06T04:05:51;26.63;;;14.67;;
16822;SDS011;8528;49.976;11.858;2024-03-06T04:08:18;27.00;;;13.70;;
16822;SDS011;8528;49.976;11.858;2024-03-06T04:10:45;26.57;;;13.50;;
16822;SDS011;8528;49.976;11.858;2024-03-06T04:13:12;27.70;;;12.77;;
16822;SDS011;8528;49.976;11.858;2024-03-06T04:15:41;27.40;;;13.37;;
16822;SDS011;8528;49.976;11.858;2024-03-06T04:18:08;22.40;;;12.77;;
16822;SDS011;8528;49.976;11.858;2024-03-06T04:20:35;22.30;;;12.73;;
16822;SDS011;8528;49.976;11.858;2024-03-06T04:23:02;27.37;;;13.43;;
16822;SDS011;8528;49.976;11.858;2024-03-06T04:25:31;23.73;;;12.80;;
16822;SDS011;8528;49.976;11.858;2024-03-06T04:27:57;23.80;;;12.53;;
16822;SDS011;8528;49.976;11.858;2024-03-06T04:30:24;24.67;;;12.37;;
16822;SDS011;8528;49.976;11.858;2024-03-06T04:32:52;23.73;;;12.03;;
16822;SDS011;8528;49.976;11.858;2024-03-06T04:35:18;21.37;;;12.23;;
16822;SDS011;8528;49.976;11.858;2024-03-06T04:37:45;22.73;;;11.73;;
16822;SDS011;8528;49.976;11.858;2024-03-06T04:40:12;23.83;;;12.60;;
16822;SDS011;8528;49.976;11.858;2024-03-06T04:42:47;20.87;;;11.40;;
16822;SDS011;8528;49.976;11.858;2024-03-06T04:45:15;24.30;;;12.30;;
16822;SDS011;8528;49.976;11.858;2024-03-06T04:47:42;21.80;;;12.63;;
16822;SDS011;8528;49.976;11.858;2024-03-06T04:50:10;21.20;;;11.83;;
16822;SDS011;8528;49.976;11.858;2024-03-06T04:52:39;21.57;;;11.53;;
16822;SDS011;8528;49.976;11.858;2024-03-06T04:55:07;20.60;;;11.63;;
16822;SDS011;8528;49.976;11.858;2024-03-06T04:57:37;24.07;;;12.43;;
16822;SDS011;8528;49.976;11.858;2024-03-06T05:00:07;23.17;;;13.00;;
16822;SDS011;8528;49.976;11.858;2024-03-06T05:02:34;24.00;;;12.20;;
16822;SDS011;8528;49.976;11.858;2024-03-06T05:05:20;25.10;;;13.43;;
16822;SDS011;8528;49.976;11.858;2024-03-06T05:08:05;28.70;;;14.40;;
16822;SDS011;8528;49.976;11.858;2024-03-06T05:10:50;29.23;;;14.20;;
16822;SDS011;8528;49.976;11.858;2024-03-06T05:13:35;28.57;;;15.03;;
16822;SDS011;8528;49.976;11.858;2024-03-06T05:16:19;29.23;;;15.40;;
16822;SDS011;8528;49.976;11.858;2024-03-06T05:19:04;27.40;;;14.47;;
16822;SDS011;8528;49.976;11.858;2024-03-06T05:21:48;33.03;;;16.17;;
16822;SDS011;8528;49.976;11.858;2024-03-06T05:24:32;28.13;;;14.87;;
16822;SDS011;8528;49.976;11.858;2024-03-06T05:27:17;30.10;;;14.90;;
16822;SDS011;8528;49.976;11.858;2024-03-06T05:30:02;31.57;;;16.60;;
16822;SDS011;8528;49.976;11.858;2024-03-06T05:32:49;31.57;;;16.07;;
16822;SDS011;8528;49.976;11.858;2024-03-06T05:35:33;36.23;;;17.00;;
16822;SDS011;8528;49.976;11.858;2024-03-06T05:38:18;31.33;;;15.90;;
16822;SDS011;8528;49.976;11.858;2024-03-06T05:41:03;33.17;;;17.13;;
16822;SDS011;8528;49.976;11.858;2024-03-06T05:43:47;34.93;;;17.10;;
16822;SDS011;8528;49.976;11.858;2024-03-06T05:46:32;34.87;;;16.43;;
16822;SDS011;8528;49.976;11.858;2024-03-06T05:49:17;35.43;;;16.27;;
16822;SDS011;8528;49.976;11.858;2024-03-06T05:52:01;34.30;;;18.30;;
16822;SDS011;8528;49.976;11.858;2024-03-06T05:54:46;35.23;;;17.90;;
16822;SDS011;8528;49.976;11.858;2024-03-06T05:57:31;28.37;;;14.73;;
16822;SDS011;8528;49.976;11.858;2024-03-06T06:00:15;31.03;;;15.27;;
16822;SDS011;8528;49.976;11.858;2024-03-06T06:02:44;33.07;;;16.87;;
16822;SDS011;8528;49.976;11.858;2024-03-06T06:05:12;32.30;;;16.13;;
16822;SDS011;8528;49.976;11.858;2024-03-06T06:07:49;30.83;;;15.80;;
16822;SDS011;8528;49.976;11.858;2024-03-06T06:10:17;32.97;;;16.27;;
16822;SDS011;8528;49.976;11.858;2024-03-06T06:12:47;31.20;;;16.50;;
16822;SDS011;8528;49.976;11.858;2024-03-06T06:15:15;38.83;;;18.07;;
16822;SDS011;8528;49.976;11.858;2024-03-06T06:17:42;35.90;;;17.17;;
16822;SDS011;8528;49.976;11.858;2024-03-06T06:20:11;36.17;;;17.73;;
16822;SDS011;8528;49.976;11.858;2024-03-06T06:22:43;36.80;;;17.27;;
16822;SDS011;8528;49.976;11.858;2024-03-06T06:25:10;32.47;;;15.90;;
16822;SDS011;8528;49.976;11.858;2024-03-06T06:27:37;31.13;;;15.07;;
16822;SDS011;8528;49.976;11.858;2024-03-06T06:30:05;29.90;;;15.10;;
16822;SDS011;8528;49.976;11.858;2024-03-06T06:32:38;22.90;;;12.47;;
16822;SDS011;8528;49.976;11.858;2024-03-06T06:35:08;26.10;;;13.70;;
16822;SDS011;8528;49.976;11.858;2024-03-06T06:37:36;28.40;;;15.47;;
16822;SDS011;8528;49.976;11.858;2024-03-06T06:40:04;30.60;;;15.33;;
16822;SDS011;8528;49.976;11.858;2024-03-06T06:42:34;31.27;;;15.20;;
16822;SDS011;8528;49.976;11.858;2024-03-06T06:45:03;34.83;;;16.57;;
16822;SDS011;8528;49.976;11.858;2024-03-06T06:47:32;30.20;;;14.97;;
16822;SDS011;8528;49.976;11.858;2024-03-06T06:49:59;30.10;;;14.80;;
16822;SDS011;8528;49.976;11.858;2024-03-06T06:52:27;32.93;;;16.30;;
16822;SDS011;8528;49.976;11.858;2024-03-06T06:54:55;32.23;;;16.10;;
16822;SDS011;8528;49.976;11.858;2024-03-06T06:57:22;30.30;;;15.40;;
16822;SDS011;8528;49.976;11.858;2024-03-06T06:59:49;30.43;;;15.63;;
16822;SDS011;8528;49.976;11.858;2024-03-06T07:02:16;32.23;;;16.87;;
16822;SDS011;8528;49.976;11.858;2024-03-06T07:04:43;34.27;;;17.87;;
16822;SDS011;8528;49.976;11.858;2024-03-06T07:07:10;34.43;;;17.33;;
16822;SDS011;8528;49.976;11.858;2024-03-06T07:09:37;36.23;;;17.60;;
16822;SDS011;8528;49.976;11.858;2024-03-06T07:12:05;36.53;;;18.53;;
16822;SDS011;8528;49.976;11.858;2024-03-06T07:14:32;39.73;;;19.13;;
16822;SDS011;8528;49.976;11.858;2024-03-06T07:17:00;37.70;;;19.87;;
16822;SDS011;8528;49.976;11.858;2024-03-06T07:19:27;36.73;;;19.10;;
16822;SDS011;8528;49.976;11.858;2024-03-06T07:21:53;34.07;;;17.30;;
16822;SDS011;8528;49.976;11.858;2024-03-06T07:24:20;33.77;;;18.17;;
16822;SDS011;8528;49.976;11.858;2024-03-06T07:26:47;33.97;;;17.23;;
16822;SDS011;8528;49.976;11.858;2024-03-06T07:29:14;30.20;;;15.27;;
16822;SDS011;8528;49.976;11.858;2024-03-06T07:31:41;32.47;;;16.00;;
16822;SDS011;8528;49.976;11.858;2024-03-06T07:34:10;28.90;;;14.17;;
16822;SDS011;8528;49.976;11.858;2024-03-06T07:36:37;25.83;;;14.13;;
16822;SDS011;8528;49.976;11.858;2024-03-06T07:39:04;24.27;;;12.63;;
16822;SDS011;8528;49.976;11.858;2024-03-06T07:41:31;25.23;;;13.47;;
16822;SDS011;8528;49.976;11.858;2024-03-06T07:44:00;25.27;;;12.43;;
16822;SDS011;8528;49.976;11.858;2024-03-06T07:46:27;21.13;;;12.10;;
16822;SDS011;8528;49.976;11.858;2024-03-06T07:48:53;22.67;;;12.80;;
16822;SDS011;8528;49.976;11.858;2024-03-06T07:51:21;22.27;;;12.23;;
16822;SDS011;8528;49.976;11.858;2024-03-06T07:53:49;19.27;;;11.27;;
16822;SDS011;8528;49.976;11.858;2024-03-06T07:56:17;22.00;;;11.53;;
16822;SDS011;8528;49.976;11.858;2024-03-06T07:58:44;21.27;;;11.17;;
16822;SDS011;8528;49.976;11.858;2024-03-06T08:01:12;19.33;;;10.83;;
16822;SDS011;8528;49.976;11.858;2024-03-06T08:03:39;16.87;;;10.37;;
16822;SDS011;8528;49.976;11.858;2024-03-06T08:06:07;17.80;;;10.13;;
16822;SDS011;8528;49.976;11.858;2024-03-06T08:08:34;16.57;;;10.27;;
16822;SDS011;8528;49.976;11.858;2024-03-06T08:11:08;17.63;;;10.13;;
16822;SDS011;8528;49.976;11.858;2024-03-06T08:13:37;16.63;;;9.63;;
16822;SDS011;8528;49.976;11.858;2024-03-06T08:16:05;18.50;;;10.60;;
16822;SDS011;8528;49.976;11.858;2024-03-06T08:18:33;16.57;;;10.00;;
16822;SDS011;8528;49.976;11.858;2024-03-06T08:21:01;19.60;;;10.33;;
16822;SDS011;8528;49.976;11.858;2024-03-06T08:23:29;17.33;;;9.97;;
16822;SDS011;8528;49.976;11.858;2024-03-06T08:25:57;14.93;;;9.37;;
16822;SDS011;8528;49.976;11.858;2024-03-06T08:28:23;16.90;;;10.27;;
16822;SDS011;8528;49.976;11.858;2024-03-06T08:30:50;18.23;;;10.23;;
16822;SDS011;8528;49.976;11.858;2024-03-06T08:33:18;17.93;;;10.60;;
16822;SDS011;8528;49.976;11.858;2024-03-06T08:35:47;17.37;;;10.17;;
16822;SDS011;8528;49.976;11.858;2024-03-06T08:38:15;15.80;;;9.57;;
16822;SDS011;8528;49.976;11.858;2024-03-06T08:40:43;15.03;;;8.90;;
16822;SDS011;8528;49.976;11.858;2024-03-06T08:43:12;16.57;;;9.60;;
16822;SDS011;8528;49.976;11.858;2024-03-06T08:45:42;14.13;;;8.57;;
16822;SDS011;8528;49.976;11.858;2024-03-06T08:48:09;14.67;;;9.17;;
16822;SDS011;8528;49.976;11.858;2024-03-06T08:50:37;16.80;;;9.77;;
16822;SDS011;8528;49.976;11.858;2024-03-06T08:53:04;17.13;;;10.47;;
16822;SDS011;8528;49.976;11.858;2024-03-06T08:55:31;17.17;;;9.43;;
16822;SDS011;8528;49.976;11.858;2024-03-06T08:57:59;13.50;;;9.03;;
16822;SDS011;8528;49.976;11.858;2024-03-06T09:00:28;16.53;;;9.50;;
16822;SDS011;8528;49.976;11.858;2024-03-06T09:02:55;14.50;;;9.07;;
16822;SDS011;8528;49.976;11.858;2024-03-06T09:05:22;15.57;;;9.60;;
16822;SDS011;8528;49.976;11.858;2024-03-06T09:07:49;14.47;;;9.33;;
16822;SDS011;8528;49.976;11.858;2024-03-06T09:10:16;16.17;;;10.20;;
16822;SDS011;8528;49.976;11.858;2024-03-06T09:12:45;13.93;;;9.50;;
16822;SDS011;8528;49.976;11.858;2024-03-06T09:15:14;14.93;;;10.07;;
16822;SDS011;8528;49.976;11.858;2024-03-06T09:17:41;16.63;;;10.00;;
16822;SDS011;8528;49.976;11.858;2024-03-06T09:20:09;17.37;;;10.60;;
16822;SDS011;8528;49.976;11.858;2024-03-06T09:22:42;18.17;;;10.67;;
16822;SDS011;8528;49.976;11.858;2024-03-06T09:25:10;16.43;;;10.57;;
16822;SDS011;8528;49.976;11.858;2024-03-06T09:27:41;16.20;;;10.33;;
16822;SDS011;8528;49.976;11.858;2024-03-06T09:30:08;17.50;;;9.03;;
16822;SDS011;8528;49.976;11.858;2024-03-06T09:32:37;16.70;;;8.63;;
16822;SDS011;8528;49.976;11.858;2024-03-06T09:35:04;16.83;;;10.03;;
16822;SDS011;8528;49.976;11.858;2024-03-06T09:37:33;19.90;;;10.40;;
16822;SDS011;8528;49.976;11.858;2024-03-06T09:39:59;14.87;;;9.93;;
16822;SDS011;8528;49.976;11.858;2024-03-06T09:42:26;16.80;;;10.20;;
16822;SDS011;8528;49.976;11.858;2024-03-06T09:44:54;16.47;;;9.27;;
16822;SDS011;8528;49.976;11.858;2024-03-06T09:47:21;15.23;;;10.07;;
16822;SDS011;8528;49.976;11.858;2024-03-06T09:49:51;17.90;;;10.03;;
16822;SDS011;8528;49.976;11.858;2024-03-06T09:52:23;15.70;;;9.17;;
16822;SDS011;8528;49.976;11.858;2024-03-06T09:54:54;14.67;;;9.03;;
16822;SDS011;8528;49.976;11.858;2024-03-06T09:57:22;14.77;;;9.33;;
16822;SDS011;8528;49.976;11.858;2024-03-06T09:59:49;13.47;;;8.83;;
16822;SDS011;8528;49.976;11.858;2024-03-06T10:02:18;15.60;;;9.47;;
16822;SDS011;8528;49.976;11.858;2024-03-06T10:04:52;12.93;;;8.53;;
16822;SDS011;8528;49.976;11.858;2024-03-06T10:07:19;15.50;;;8.60;;
16822;SDS011;8528;49.976;11.858;2024-03-06T10:09:47;16.60;;;9.37;;
16822;SDS011;8528;49.976;11.858;2024-03-06T10:12:16;15.30;;;9.47;;
16822;SDS011;8528;49.976;11.858;2024-03-06T10:14:48;15.40;;;9.30;;
16822;SDS011;8528;49.976;11.858;2024-03-06T10:17:20;15.93;;;9.20;;
16822;SDS011;8528;49.976;11.858;2024-03-06T10:19:54;12.90;;;8.87;;
16822;SDS011;8528;49.976;11.858;2024-03-06T10:22:21;16.23;;;9.10;;
16822;SDS011;8528;49.976;11.858;2024-03-06T10:24:54;17.93;;;9.00;;
16822;SDS011;8528;49.976;11.858;2024-03-06T10:27:24;14.00;;;8.73;;
16822;SDS011;8528;49.976;11.858;2024-03-06T10:30:02;14.30;;;9.37;;
16822;SDS011;8528;49.976;11.858;2024-03-06T10:32:32;16.67;;;9.53;;
16822;SDS011;8528;49.976;11.858;2024-03-06T10:34:59;15.47;;;9.27;;
16822;SDS011;8528;49.976;11.858;2024-03-06T10:37:26;16.47;;;9.53;;
16822;SDS011;8528;49.976;11.858;2024-03-06T10:39:55;17.60;;;10.53;;
16822;SDS011;8528;49.976;11.858;2024-03-06T10:42:28;17.30;;;9.60;;
16822;SDS011;8528;49.976;11.858;2024-03-06T10:44:55;14.23;;;9.90;;
16822;SDS011;8528;49.976;11.858;2024-03-06T10:47:26;14.97;;;9.23;;
16822;SDS011;8528;49.976;11.858;2024-03-06T10:49:55;13.07;;;9.00;;
16822;SDS011;8528;49.976;11.858;2024-03-06T10:52:26;14.47;;;9.30;;
16822;SDS011;8528;49.976;11.858;2024-03-06T10:54:54;17.67;;;10.53;;
16822;SDS011;8528;49.976;11.858;2024-03-06T10:57:25;14.90;;;9.33;;
16822;SDS011;8528;49.976;11.858;2024-03-06T10:59:53;15.00;;;9.67;;
16822;SDS011;8528;49.976;11.858;2024-03-06T11:02:22;20.00;;;10.23;;
16822;SDS011;8528;49.976;11.858;2024-03-06T11:04:50;17.60;;;10.40;;
16822;SDS011;8528;49.976;11.858;2024-03-06T11:07:18;19.03;;;10.93;;
16822;SDS011;8528;49.976;11.858;2024-03-06T11:09:46;17.47;;;10.10;;
16822;SDS011;8528;49.976;11.858;2024-03-06T11:12:35;18.80;;;11.00;;
16822;SDS011;8528;49.976;11.858;2024-03-06T11:15:13;19.47;;;11.03;;
16822;SDS011;8528;49.976;11.858;2024-03-06T11:17:42;16.93;;;10.40;;
16822;SDS011;8528;49.976;11.858;2024-03-06T11:20:18;20.90;;;10.83;;
16822;SDS011;8528;49.976;11.858;2024-03-06T11:28:16;19.33;;;11.20;;
16822;SDS011;8528;49.976;11.858;2024-03-06T11:30:54;19.23;;;10.90;;
16822;SDS011;8528;49.976;11.858;2024-03-06T11:33:29;17.93;;;9.70;;
16822;SDS011;8528;49.976;11.858;2024-03-06T11:36:19;14.97;;;9.50;;
16822;SDS011;8528;49.976;11.858;2024-03-06T11:38:50;15.70;;;9.13;;
16822;SDS011;8528;49.976;11.858;2024-03-06T11:41:25;14.70;;;9.47;;
16822;SDS011;8528;49.976;11.858;2024-03-06T11:43:54;18.10;;;10.67;;
16822;SDS011;8528;49.976;11.858;2024-03-06T11:46:23;15.07;;;9.63;;
16822;SDS011;8528;49.976;11.858;2024-03-06T11:49:14;14.90;;;9.20;;
16822;SDS011;8528;49.976;11.858;2024-03-06T11:51:44;15.33;;;9.67;;
16822;SDS011;8528;49.976;11.858;2024-03-06T11:54:12;14.57;;;9.63;;
16822;SDS011;8528;49.976;11.858;2024-03-06T11:56:44;14.50;;;9.70;;
16822;SDS011;8528;49.976;11.858;2024-03-06T11:59:13;17.80;;;11.13;;
16822;SDS011;8528;49.976;11.858;2024-03-06T12:01:41;15.87;;;9.60;;
16822;SDS011;8528;49.976;11.858;2024-03-06T12:04:08;15.03;;;9.93;;
16822;SDS011;8528;49.976;11.858;2024-03-06T12:06:36;14.87;;;9.20;;
16822;SDS011;8528;49.976;11.858;2024-03-06T12:09:04;17.73;;;10.27;;
16822;SDS011;8528;49.976;11.858;2024-03-06T12:11:31;16.67;;;9.73;;
16822;SDS011;8528;49.976;11.858;2024-03-06T12:13:58;14.50;;;9.93;;
16822;SDS011;8528;49.976;11.858;2024-03-06T12:16:25;15.10;;;10.10;;
16822;SDS011;8528;49.976;11.858;2024-03-06T12:18:55;15.03;;;9.63;;
16822;SDS011;8528;49.976;11.858;2024-03-06T12:21:30;14.40;;;9.30;;
16822;SDS011;8528;49.976;11.858;2024-03-06T12:24:01;12.33;;;8.50;;
16822;SDS011;8528;49.976;11.858;2024-03-06T12:26:32;13.50;;;8.73;;
16822;SDS011;8528;49.976;11.858;2024-03-06T12:29:09;12.07;;;8.23;;
16822;SDS011;8528;49.976;11.858;2024-03-06T12:31:38;12.30;;;8.37;;
16822;SDS011;8528;49.976;11.858;2024-03-06T12:34:12;13.03;;;8.87;;
16822;SDS011;8528;49.976;11.858;2024-03-06T12:36:43;13.83;;;8.50;;
16822;SDS011;8528;49.976;11.858;2024-03-06T12:39:14;17.83;;;10.97;;
16822;SDS011;8528;49.976;11.858;2024-03-06T12:41:44;12.87;;;9.20;;
16822;SDS011;8528;49.976;11.858;2024-03-06T12:44:12;14.43;;;9.73;;
16822;SDS011;8528;49.976;11.858;2024-03-06T12:46:39;14.23;;;9.13;;
16822;SDS011;8528;49.976;11.858;2024-03-06T12:49:06;13.73;;;9.30;;
16822;SDS011;8528;49.976;11.858;2024-03-06T12:51:32;15.90;;;8.87;;
16822;SDS011;8528;49.976;11.858;2024-03-06T12:54:00;13.43;;;8.73;;
16822;SDS011;8528;49.976;11.858;2024-03-06T12:56:27;15.80;;;9.57;;
16822;SDS011;8528;49.976;11.858;2024-03-06T12:58:54;21.70;;;11.60;;
16822;SDS011;8528;49.976;11.858;2024-03-06T13:01:22;19.67;;;12.57;;
16822;SDS011;8528;49.976;11.858;2024-03-06T13:03:49;19.47;;;13.07;;
16822;SDS011;8528;49.976;11.858;2024-03-06T13:06:16;18.03;;;12.23;;
16822;SDS011;8528;49.976;11.858;2024-03-06T13:08:43;16.07;;;11.27;;
16822;SDS011;8528;49.976;11.858;2024-03-06T13:11:10;20.23;;;12.57;;
16822;SDS011;8528;49.976;11.858;2024-03-06T13:13:38;17.53;;;11.67;;
16822;SDS011;8528;49.976;11.858;2024-03-06T13:16:05;16.47;;;10.53;;
16822;SDS011;8528;49.976;11.858;2024-03-06T13:18:35;18.30;;;11.40;;
16822;SDS011;8528;49.976;11.858;2024-03-06T13:21:02;19.57;;;11.73;;
16822;SDS011;8528;49.976;11.858;2024-03-06T13:23:29;22.17;;;11.57;;
16822;SDS011;8528;49.976;11.858;2024-03-06T13:25:57;17.77;;;11.40;;
16822;SDS011;8528;49.976;11.858;2024-03-06T13:28:25;20.00;;;11.33;;
16822;SDS011;8528;49.976;11.858;2024-03-06T13:30:51;14.27;;;10.20;;
16822;SDS011;8528;49.976;11.858;2024-03-06T13:33:23;17.70;;;10.10;;
16822;SDS011;8528;49.976;11.858;2024-03-06T13:35:53;15.03;;;10.03;;
16822;SDS011;8528;49.976;11.858;2024-03-06T13:38:21;15.43;;;9.70;;
16822;SDS011;8528;49.976;11.858;2024-03-06T13:40:48;14.90;;;9.73;;
16822;SDS011;8528;49.976;11.858;2024-03-06T13:43:15;15.80;;;10.33;;
16822;SDS011;8528;49.976;11.858;2024-03-06T13:45:49;16.80;;;10.90;;
16822;SDS011;8528;49.976;11.858;2024-03-06T13:48:16;17.37;;;11.73;;
16822;SDS011;8528;49.976;11.858;2024-03-06T13:50:44;15.50;;;9.57;;
16822;SDS011;8528;49.976;11.858;2024-03-06T13:53:11;15.93;;;9.43;;
16822;SDS011;8528;49.976;11.858;2024-03-06T13:55:38;16.10;;;10.27;;
16822;SDS011;8528;49.976;11.858;2024-03-06T13:58:06;10.27;;;7.43;;
16822;SDS011;8528;49.976;11.858;2024-03-06T14:00:34;12.97;;;7.50;;
16822;SDS011;8528;49.976;11.858;2024-03-06T14:03:04;14.03;;;8.10;;
16822;SDS011;8528;49.976;11.858;2024-03-06T14:05:30;12.83;;;8.87;;
16822;SDS011;8528;49.976;11.858;2024-03-06T14:07:58;14.30;;;9.67;;
16822;SDS011;8528;49.976;11.858;2024-03-06T14:10:25;15.27;;;9.67;;
16822;SDS011;8528;49.976;11.858;2024-03-06T14:12:52;17.70;;;11.00;;
16822;SDS011;8528;49.976;11.858;2024-03-06T14:15:21;21.93;;;12.03;;
16822;SDS011;8528;49.976;11.858;2024-03-06T14:17:49;18.90;;;12.20;;
16822;SDS011;8528;49.976;11.858;2024-03-06T14:20:17;18.73;;;13.00;;
16822;SDS011;8528;49.976;11.858;2024-03-06T14:22:44;21.10;;;13.43;;
16822;SDS011;8528;49.976;11.858;2024-03-06T14:25:11;20.60;;;13.73;;
16822;SDS011;8528;49.976;11.858;2024-03-06T14:27:38;21.53;;;13.07;;
16822;SDS011;8528;49.976;11.858;2024-03-06T14:30:06;20.17;;;12.80;;
16822;SDS011;8528;49.976;11.858;2024-03-06T14:32:33;18.33;;;12.40;;
16822;SDS011;8528;49.976;11.858;2024-03-06T14:35:01;20.07;;;13.13;;
16822;SDS011;8528;49.976;11.858;2024-03-06T14:37:28;19.20;;;12.57;;
16822;SDS011;8528;49.976;11.858;2024-03-06T14:39:55;17.23;;;11.60;;
16822;SDS011;8528;49.976;11.858;2024-03-06T14:42:22;19.47;;;12.77;;
16822;SDS011;8528;49.976;11.858;2024-03-06T14:44:49;18.27;;;12.47;;